West Point, Ohio
Current Conditions -  °F | °C
As of 3:47 PM on Tuesday 27 Jan 2015 (Local Time) from KBVI Reporting Station
Light Snow Light Snow  
Wind Chill: -11°   Ceiling: 2500
Heat Index: -6°   Visibility: 4mi
Dew Point: -10°   Wind: 8mph
Humidity: 74%   Direction: 330°NNW
Pressure: 29.99"   Gusts: NA
Location:  40.71°N, 80.7°W
Report Text: KBVI 272047Z 33007KT 4SM -SN SCT015 OVC025 M06/M10 A2999
Loading
Personal Weather Stations






























Interactive Weather Map New forecast layout! Learn more

10-Day Weather Forecast

Advertisements
Track Severe Weather on mobile